Vohburg — V2OW7 — position and weather

sailwx.info

Track history (hours):
 
Tides and Currents Weather Stations Pressure Air Temp Water Temp Dewpoint Dewpoint Depression Visibility Wind Speed Wind Dir Waves Ship Positions

Vohburg

Last reported at 2016-Aug-23 11:31 UTC. Time now 2016-Aug-24 04:49 UTC.
Position N 57°49' E 010°39'.

Length 140 m; draft 7.2 m.

Type: Ship (hazmat cat A). MMSI: 305773000.

Date/timePositionNaut miles runAvg speedWind from/ knotsBaromVisibWave heightAir tempDewpointWater temp
2016-Aug-23 11:31N 57°49' E 010°39'9 9.3
2016-Aug-23 10:33N 57°44' E 010°53'1110.6
2016-Aug-23 09:33N 57°37' E 011°08'1111.0
2016-Aug-23 08:33N 57°29' E 011°23'1110.7
2016-Aug-23 07:33N 57°20' E 011°31'1110.7
2016-Aug-23 06:33N 57°10' E 011°38'1110.6
2016-Aug-23 05:33N 56°60' E 011°45'1110.8
2016-Aug-23 04:33N 56°50' E 011°52'1110.8
2016-Aug-23 03:33N 56°39' E 011°59'1111.4
2016-Aug-23 02:33N 56°29' E 012°06'1411.5
2016-Aug-23 01:21N 56°18' E 012°20'911.7
2016-Aug-23 00:33N 56°10' E 012°30'1212.4
2016-Aug-22 23:33N 55°59' E 012°42'1111.1
2016-Aug-22 22:33N 55°48' E 012°43'1211.6
2016-Aug-22 21:33N 55°37' E 012°42'1313.1
2016-Aug-22 20:33N 55°24' E 012°41'1111.2
2016-Aug-22 19:34N 55°16' E 012°55'1413.7
2016-Aug-22 18:33N 55°15' E 013°20'1413.9
2016-Aug-22 17:34N 55°14' E 013°44'1313.3
2016-Aug-22 16:34N 55°13' E 014°07'1211.9
2016-Aug-22 15:33N 55°19' E 014°26'1313.1
2016-Aug-22 14:34N 55°29' E 014°41'1312.6
2016-Aug-22 13:34N 55°35' E 014°59'1512.6
2016-Aug-22 12:24N 55°42' E 015°23'  
2016-Aug-20 05:32N 59°38' E 023°23'1515.5
2016-Aug-20 04:33N 59°42' E 023°53'1515.3
2016-Aug-20 03:33N 59°46' E 024°22'1515.3
2016-Aug-20 02:33N 59°50' E 024°51'2115.6
2016-Aug-20 01:14N 59°54' E 025°32'1015.3
2016-Aug-20 00:33N 59°57' E 025°52'1515.4
2016-Aug-19 23:33N 60°00' E 026°21'1515.1
2016-Aug-19 22:33N 60°00' E 026°52'1414.5
2016-Aug-19 21:33N 60°04' E 027°19'1515.2
2016-Aug-19 20:33N 60°12' E 027°45'1615.5
2016-Aug-19 19:33N 60°08' E 028°15'1514.9
2016-Aug-19 18:33N 60°03' E 028°44'2116.2
2016-Aug-19 17:15N 60°02' E 029°26'912.6
2016-Aug-19 16:33N 59°59' E 029°43'1 1.0
2016-Aug-19 15:29N 60°00' E 029°43'0 0.0
2016-Aug-19 14:23N 60°00' E 029°43'0 0.0
2016-Aug-19 13:33N 60°00' E 029°43'0 0.0
2016-Aug-19 12:30N 60°00' E 029°43'0 0.0
2016-Aug-19 11:25N 60°00' E 029°43'0 0.0
2016-Aug-19 10:31N 60°00' E 029°43'0 0.0
2016-Aug-19 09:22N 60°00' E 029°43'0 0.0
2016-Aug-19 08:31N 60°00' E 029°43'0 0.0
2016-Aug-19 07:29N 60°00' E 029°43'0 0.0
2016-Aug-19 06:29N 60°00' E 029°43'0 0.0
2016-Aug-19 05:29N 60°00' E 029°43'2 2.6
2016-Aug-19 04:33N 60°00' E 029°38'1312.8
2016-Aug-19 03:33N 60°02' E 029°13'1414.5
2016-Aug-19 02:33N 60°02' E 028°44'1414.0
2016-Aug-19 01:33N 60°07' E 028°17'1514.5
2016-Aug-19 00:33N 60°10' E 027°49'1414.4
2016-Aug-18 23:33N 60°04' E 027°23'1414.0
2016-Aug-18 22:31N 59°59' E 026°57'1414.3
2016-Aug-18 21:33N 59°58' E 026°29'50 2.8
2016-Aug-18 03:34N 59°49' E 024°52'1514.6
2016-Aug-18 02:34N 59°44' E 024°24'1514.9
2016-Aug-18 01:33N 59°40' E 023°56'1514.6
2016-Aug-18 00:32N 59°35' E 023°28'31515.8
2016-Aug-17 04:33N 55°56' E 016°25'1817.8
2016-Aug-17 03:33N 55°47' E 015°57'1817.8
2016-Aug-17 02:33N 55°39' E 015°28'1817.8
2016-Aug-17 01:33N 55°31' E 015°01'1817.9
2016-Aug-17 00:34N 55°21' E 014°35'1817.9
2016-Aug-16 23:33N 55°07' E 014°16'1717.1
2016-Aug-16 22:33N 54°58' E 013°50'1818.2
2016-Aug-16 21:33N 54°52' E 013°20'1817.6
2016-Aug-16 20:33N 54°46' E 012°51'1717.1
2016-Aug-16 19:33N 54°38' E 012°25'1716.6
2016-Aug-16 18:33N 54°25' E 012°08'1716.7
2016-Aug-16 17:33N 54°18' E 011°41'1717.2
2016-Aug-16 16:33N 54°09' E 011°16'8 0.3
2016-Aug-15 15:13N 54°05' E 011°04'914.1
2016-Aug-15 14:34N 54°12' E 011°16'1413.5
2016-Aug-15 13:33N 54°24' E 011°24'1313.4
2016-Aug-15 12:34N 54°35' E 011°10'1414.0
2016-Aug-15 11:33N 54°44' E 010°51'1414.2
2016-Aug-15 10:33N 54°57' E 010°58'1514.6
2016-Aug-15 09:33N 55°11' E 011°04'8814.2
2016-Aug-15 03:21N 56°40' E 011°02'1214.7
2016-Aug-15 02:33N 56°49' E 010°50'1514.9
2016-Aug-15 01:33N 57°04' E 010°48'1615.7
2016-Aug-15 00:33N 57°20' E 010°42'1615.6
2016-Aug-14 23:33N 57°35' E 010°45'1212.4
2016-Aug-14 22:33N 57°47' E 010°38'1616.0
2016-Aug-14 21:33N 57°44' E 010°09'1615.7
2016-Aug-14 20:33N 57°36' E 009°43'1815.6
2016-Aug-14 19:25N 57°26' E 009°15'22415.1
2016-Aug-14 04:33N 54°23' E 005°26'1515.3
2016-Aug-14 03:33N 54°10' E 005°12'1515.3
2016-Aug-14 02:33N 53°57' E 005°01'1615.3
2016-Aug-14 01:33N 53°42' E 004°53'3716.1
2016-Aug-13 23:14N 53°08' E 004°28'1116.2
2016-Aug-13 22:33N 52°58' E 004°20'1615.9
2016-Aug-13 21:33N 52°44' E 004°07'1615.9
2016-Aug-13 20:33N 52°32' E 003°50'1615.4
2016-Aug-13 19:31N 52°18' E 003°36'1515.5
2016-Aug-13 18:33N 52°05' E 003°26'1515.3
2016-Aug-13 17:33N 51°50' E 003°18'1515.3
2016-Aug-13 16:34N 51°39' E 003°02'1515.1
2016-Aug-13 15:33N 51°27' E 002°46'1010.5
2016-Aug-13 14:34N 51°24' E 003°02'7 6.4
2016-Aug-13 13:31N 51°21' E 003°11'0 0.0
2016-Aug-13 12:33N 51°21' E 003°11'  
Track history (hours):
 
Tides and Currents Weather Stations Pressure Air Temp Water Temp Dewpoint Dewpoint Depression Visibility Wind Speed Wind Dir Waves Ship Positions

Vohburg

Last reported at 2016-Aug-23 11:31 UTC. Time now 2016-Aug-24 04:49 UTC.
Position N 57°49' E 010°39'.

Length 140 m; draft 7.2 m.

Type: Ship (hazmat cat A). MMSI: 305773000.

Date/timePositionNaut miles runAvg speedWind from/ knotsBaromVisibWave heightAir tempDewpointWater temp
2016-Aug-23 11:31N 57°49' E 010°39'9 9.3
2016-Aug-23 10:33N 57°44' E 010°53'1110.6
2016-Aug-23 09:33N 57°37' E 011°08'1111.0
2016-Aug-23 08:33N 57°29' E 011°23'1110.7
2016-Aug-23 07:33N 57°20' E 011°31'1110.7
2016-Aug-23 06:33N 57°10' E 011°38'1110.6
2016-Aug-23 05:33N 56°60' E 011°45'1110.8
2016-Aug-23 04:33N 56°50' E 011°52'1110.8
2016-Aug-23 03:33N 56°39' E 011°59'1111.4
2016-Aug-23 02:33N 56°29' E 012°06'1411.5
2016-Aug-23 01:21N 56°18' E 012°20'911.7
2016-Aug-23 00:33N 56°10' E 012°30'1212.4
2016-Aug-22 23:33N 55°59' E 012°42'1111.1
2016-Aug-22 22:33N 55°48' E 012°43'1211.6
2016-Aug-22 21:33N 55°37' E 012°42'1313.1
2016-Aug-22 20:33N 55°24' E 012°41'1111.2
2016-Aug-22 19:34N 55°16' E 012°55'1413.7
2016-Aug-22 18:33N 55°15' E 013°20'1413.9
2016-Aug-22 17:34N 55°14' E 013°44'1313.3
2016-Aug-22 16:34N 55°13' E 014°07'1211.9
2016-Aug-22 15:33N 55°19' E 014°26'1313.1
2016-Aug-22 14:34N 55°29' E 014°41'1312.6
2016-Aug-22 13:34N 55°35' E 014°59'1512.6
2016-Aug-22 12:24N 55°42' E 015°23'  
2016-Aug-20 05:32N 59°38' E 023°23'1515.5
2016-Aug-20 04:33N 59°42' E 023°53'1515.3
2016-Aug-20 03:33N 59°46' E 024°22'1515.3
2016-Aug-20 02:33N 59°50' E 024°51'2115.6
2016-Aug-20 01:14N 59°54' E 025°32'1015.3
2016-Aug-20 00:33N 59°57' E 025°52'1515.4
2016-Aug-19 23:33N 60°00' E 026°21'1515.1
2016-Aug-19 22:33N 60°00' E 026°52'1414.5
2016-Aug-19 21:33N 60°04' E 027°19'1515.2
2016-Aug-19 20:33N 60°12' E 027°45'1615.5
2016-Aug-19 19:33N 60°08' E 028°15'1514.9
2016-Aug-19 18:33N 60°03' E 028°44'2116.2
2016-Aug-19 17:15N 60°02' E 029°26'912.6
2016-Aug-19 16:33N 59°59' E 029°43'1 1.0
2016-Aug-19 15:29N 60°00' E 029°43'0 0.0
2016-Aug-19 14:23N 60°00' E 029°43'0 0.0
2016-Aug-19 13:33N 60°00' E 029°43'0 0.0
2016-Aug-19 12:30N 60°00' E 029°43'0 0.0
2016-Aug-19 11:25N 60°00' E 029°43'0 0.0
2016-Aug-19 10:31N 60°00' E 029°43'0 0.0
2016-Aug-19 09:22N 60°00' E 029°43'0 0.0
2016-Aug-19 08:31N 60°00' E 029°43'0 0.0
2016-Aug-19 07:29N 60°00' E 029°43'0 0.0
2016-Aug-19 06:29N 60°00' E 029°43'0 0.0
2016-Aug-19 05:29N 60°00' E 029°43'2 2.6
2016-Aug-19 04:33N 60°00' E 029°38'1312.8
2016-Aug-19 03:33N 60°02' E 029°13'1414.5
2016-Aug-19 02:33N 60°02' E 028°44'1414.0
2016-Aug-19 01:33N 60°07' E 028°17'1514.5
2016-Aug-19 00:33N 60°10' E 027°49'1414.4
2016-Aug-18 23:33N 60°04' E 027°23'1414.0
2016-Aug-18 22:31N 59°59' E 026°57'1414.3
2016-Aug-18 21:33N 59°58' E 026°29'50 2.8
2016-Aug-18 03:34N 59°49' E 024°52'1514.6
2016-Aug-18 02:34N 59°44' E 024°24'1514.9
2016-Aug-18 01:33N 59°40' E 023°56'1514.6
2016-Aug-18 00:32N 59°35' E 023°28'31515.8
2016-Aug-17 04:33N 55°56' E 016°25'1817.8
2016-Aug-17 03:33N 55°47' E 015°57'1817.8
2016-Aug-17 02:33N 55°39' E 015°28'1817.8
2016-Aug-17 01:33N 55°31' E 015°01'1817.9
2016-Aug-17 00:34N 55°21' E 014°35'1817.9
2016-Aug-16 23:33N 55°07' E 014°16'1717.1
2016-Aug-16 22:33N 54°58' E 013°50'1818.2
2016-Aug-16 21:33N 54°52' E 013°20'1817.6
2016-Aug-16 20:33N 54°46' E 012°51'1717.1
2016-Aug-16 19:33N 54°38' E 012°25'1716.6
2016-Aug-16 18:33N 54°25' E 012°08'1716.7
2016-Aug-16 17:33N 54°18' E 011°41'1717.2
2016-Aug-16 16:33N 54°09' E 011°16'8 0.3
2016-Aug-15 15:13N 54°05' E 011°04'914.1
2016-Aug-15 14:34N 54°12' E 011°16'1413.5
2016-Aug-15 13:33N 54°24' E 011°24'1313.4
2016-Aug-15 12:34N 54°35' E 011°10'1414.0
2016-Aug-15 11:33N 54°44' E 010°51'1414.2
2016-Aug-15 10:33N 54°57' E 010°58'1514.6
2016-Aug-15 09:33N 55°11' E 011°04'8814.2
2016-Aug-15 03:21N 56°40' E 011°02'1214.7
2016-Aug-15 02:33N 56°49' E 010°50'1514.9
2016-Aug-15 01:33N 57°04' E 010°48'1615.7
2016-Aug-15 00:33N 57°20' E 010°42'1615.6
2016-Aug-14 23:33N 57°35' E 010°45'1212.4
2016-Aug-14 22:33N 57°47' E 010°38'1616.0
2016-Aug-14 21:33N 57°44' E 010°09'1615.7
2016-Aug-14 20:33N 57°36' E 009°43'1815.6
2016-Aug-14 19:25N 57°26' E 009°15'22415.1
2016-Aug-14 04:33N 54°23' E 005°26'1515.3
2016-Aug-14 03:33N 54°10' E 005°12'1515.3
2016-Aug-14 02:33N 53°57' E 005°01'1615.3
2016-Aug-14 01:33N 53°42' E 004°53'3716.1
2016-Aug-13 23:14N 53°08' E 004°28'1116.2
2016-Aug-13 22:33N 52°58' E 004°20'1615.9
2016-Aug-13 21:33N 52°44' E 004°07'1615.9
2016-Aug-13 20:33N 52°32' E 003°50'1615.4
2016-Aug-13 19:31N 52°18' E 003°36'1515.5
2016-Aug-13 18:33N 52°05' E 003°26'1515.3
2016-Aug-13 17:33N 51°50' E 003°18'1515.3
2016-Aug-13 16:34N 51°39' E 003°02'1515.1
2016-Aug-13 15:33N 51°27' E 002°46'1010.5
2016-Aug-13 14:34N 51°24' E 003°02'7 6.4
2016-Aug-13 13:31N 51°21' E 003°11'0 0.0
2016-Aug-13 12:33N 51°21' E 003°11'  

Dump ship's entire track history